createdAt,value
2022-09-01T00:00:01.998Z,22.73
2022-09-01T00:02:29.476Z,22.76
2022-09-01T00:04:58.701Z,22.70
2022-09-01T00:07:26.849Z,22.73
2022-09-01T00:09:53.433Z,22.74
2022-09-01T00:12:22.658Z,22.70
2022-09-01T00:14:49.630Z,22.68
2022-09-01T00:17:16.160Z,22.65
2022-09-01T00:19:42.728Z,22.60
2022-09-01T00:22:09.318Z,22.59
2022-09-01T00:24:36.408Z,22.61
2022-09-01T00:27:04.130Z,22.59
2022-09-01T00:29:31.013Z,22.61
2022-09-01T00:31:57.601Z,22.56
2022-09-01T00:34:24.339Z,22.61
2022-09-01T00:36:50.888Z,22.62
2022-09-01T00:39:17.460Z,22.61
2022-09-01T00:41:44.735Z,22.60
2022-09-01T00:44:15.943Z,22.59
2022-09-01T00:46:51.105Z,22.61
2022-09-01T00:49:38.805Z,22.58
2022-09-01T00:52:15.835Z,22.56
2022-09-01T00:54:48.105Z,22.52
2022-09-01T00:57:15.505Z,22.51
2022-09-01T01:00:01.960Z,22.49
2022-09-01T01:02:28.679Z,22.42
2022-09-01T01:05:00.635Z,22.38
2022-09-01T01:07:28.418Z,22.37
2022-09-01T01:09:55.453Z,22.33
2022-09-01T01:12:22.171Z,22.35
2022-09-01T01:14:50.482Z,22.33
2022-09-01T01:17:20.299Z,22.33
2022-09-01T01:20:09.360Z,22.33
2022-09-01T01:23:10.486Z,22.31
2022-09-01T01:25:45.346Z,22.27
2022-09-01T01:28:37.119Z,22.31
2022-09-01T01:31:13.383Z,22.31
2022-09-01T01:33:45.393Z,22.30
2022-09-01T01:36:19.627Z,22.30
2022-09-01T01:38:48.844Z,22.28
2022-09-01T01:41:19.587Z,22.27
2022-09-01T01:43:48.195Z,22.24
2022-09-01T01:46:14.817Z,22.22
2022-09-01T01:48:42.844Z,22.21
2022-09-01T01:51:11.846Z,22.20
2022-09-01T01:53:38.885Z,22.22
2022-09-01T01:56:06.226Z,22.18
2022-09-01T01:58:34.923Z,22.19
2022-09-01T02:01:01.726Z,22.20
2022-09-01T02:03:36.382Z,22.18
2022-09-01T02:06:04.799Z,22.20
2022-09-01T02:08:31.313Z,22.21
2022-09-01T02:11:00.139Z,22.21
2022-09-01T02:13:30.361Z,22.19
2022-09-01T02:16:00.116Z,22.20
2022-09-01T02:18:36.143Z,22.19
2022-09-01T02:21:14.008Z,22.17
2022-09-01T02:23:43.229Z,22.14
2022-09-01T02:26:16.587Z,22.11
2022-09-01T02:28:50.908Z,22.11
2022-09-01T02:31:21.006Z,22.11
2022-09-01T02:33:48.632Z,22.10
2022-09-01T02:36:17.840Z,22.11
2022-09-01T02:38:45.966Z,22.05
2022-09-01T02:41:14.638Z,22.07
2022-09-01T02:43:46.202Z,22.06
2022-09-01T02:46:14.735Z,22.03
2022-09-01T02:48:46.223Z,22.04
2022-09-01T02:51:16.909Z,22.03
2022-09-01T02:53:48.696Z,22.03
2022-09-01T02:56:16.975Z,22.04
2022-09-01T02:58:48.107Z,22.04
2022-09-01T03:01:33.494Z,22.04
2022-09-01T03:04:05.760Z,22.04
2022-09-01T03:06:34.376Z,22.03
2022-09-01T03:09:02.480Z,22.00
2022-09-01T03:11:31.965Z,21.96
2022-09-01T03:13:58.678Z,21.92
2022-09-01T03:16:25.312Z,21.87
2022-09-01T03:18:52.555Z,21.83
2022-09-01T03:21:21.005Z,21.81
2022-09-01T03:23:49.467Z,21.76
2022-09-01T03:26:18.889Z,21.74
2022-09-01T03:28:45.974Z,21.74
2022-09-01T03:31:12.842Z,21.74
2022-09-01T03:33:39.577Z,21.73
2022-09-01T03:36:15.003Z,21.74
2022-09-01T03:38:44.075Z,21.73
2022-09-01T03:41:13.159Z,21.75
2022-09-01T03:43:46.956Z,21.75
2022-09-01T03:46:21.730Z,21.75
2022-09-01T03:48:55.102Z,21.77
2022-09-01T03:51:23.608Z,21.75
2022-09-01T03:53:56.881Z,21.77
2022-09-01T03:56:26.310Z,21.75
2022-09-01T03:58:56.794Z,21.75
2022-09-01T04:01:25.101Z,21.75
2022-09-01T04:03:52.958Z,21.74
2022-09-01T04:06:24.218Z,21.75
2022-09-01T04:08:57.693Z,21.74
2022-09-01T04:11:24.437Z,21.72
2022-09-01T04:13:51.702Z,21.72
2022-09-01T04:16:42.668Z,21.70
2022-09-01T04:19:20.272Z,21.70
2022-09-01T04:21:51.693Z,21.66
2022-09-01T04:24:19.112Z,21.69
2022-09-01T04:26:49.596Z,21.68
2022-09-01T04:29:19.340Z,21.64
2022-09-01T04:31:48.755Z,21.65
2022-09-01T04:34:16.247Z,21.64
2022-09-01T04:36:44.715Z,21.63
2022-09-01T04:39:13.301Z,21.62
2022-09-01T04:41:50.769Z,21.63
2022-09-01T04:44:19.332Z,21.59
2022-09-01T04:46:48.296Z,21.59
2022-09-01T04:49:21.967Z,21.57
2022-09-01T04:51:53.733Z,21.58
2022-09-01T04:54:23.012Z,21.56
2022-09-01T04:56:52.789Z,21.54
2022-09-01T04:59:24.310Z,21.55
2022-09-01T05:01:54.890Z,21.53
2022-09-01T05:04:24.572Z,21.53
2022-09-01T05:06:59.736Z,21.52
2022-09-01T05:09:29.658Z,21.50
2022-09-01T05:11:57.933Z,21.50
2022-09-01T05:14:25.641Z,21.49
2022-09-01T05:16:58.783Z,21.49
2022-09-01T05:19:28.931Z,21.43
2022-09-01T05:21:58.255Z,21.43
2022-09-01T05:24:30.402Z,21.41
2022-09-01T05:26:57.751Z,21.35
2022-09-01T05:29:27.677Z,21.32
2022-09-01T05:31:55.438Z,21.26
2022-09-01T05:34:27.057Z,21.24
2022-09-01T05:36:57.916Z,21.20
2022-09-01T05:39:25.396Z,21.17
2022-09-01T05:41:53.882Z,21.14
2022-09-01T05:44:25.011Z,21.13
2022-09-01T05:46:52.767Z,21.12
2022-09-01T05:49:19.825Z,21.14
2022-09-01T05:51:50.459Z,21.14
2022-09-01T05:54:23.277Z,21.18
2022-09-01T05:56:50.214Z,21.21
2022-09-01T05:59:25.575Z,21.25
2022-09-01T06:01:54.433Z,21.32
2022-09-01T06:04:22.791Z,21.36
2022-09-01T06:07:07.726Z,21.41
2022-09-01T06:09:40.270Z,21.45
2022-09-01T06:12:17.867Z,21.47
2022-09-01T06:14:46.881Z,21.50
2022-09-01T06:17:16.479Z,21.56
2022-09-01T06:19:44.153Z,21.60
2022-09-01T06:22:11.626Z,21.65
2022-09-01T06:24:43.519Z,21.67
2022-09-01T06:27:11.699Z,21.73
2022-09-01T06:29:41.730Z,21.76
2022-09-01T06:32:10.491Z,21.80
2022-09-01T06:34:42.465Z,21.81
2022-09-01T06:37:09.892Z,21.82
2022-09-01T06:39:36.595Z,21.82
2022-09-01T06:42:05.972Z,21.82
2022-09-01T06:44:33.734Z,21.84
2022-09-01T06:47:00.560Z,21.85
2022-09-01T06:49:33.207Z,21.88
2022-09-01T06:52:02.807Z,21.93
2022-09-01T06:54:34.290Z,21.96
2022-09-01T06:58:03.393Z,22.01
2022-09-01T06:59:52.338Z,22.02
2022-09-01T07:02:19.938Z,22.06
2022-09-01T07:04:53.426Z,22.04
2022-09-01T07:10:18.594Z,22.06
2022-09-01T07:13:08.661Z,22.07
2022-09-01T07:18:31.174Z,22.10
2022-09-01T07:21:09.370Z,22.16
2022-09-01T07:24:06.025Z,22.20
2022-09-01T07:26:35.957Z,22.25
2022-09-01T07:32:44.151Z,22.30
2022-09-01T07:34:40.309Z,22.31
2022-09-01T07:39:56.205Z,22.32
2022-09-01T07:45:28.287Z,22.37
2022-09-01T07:47:56.686Z,22.39
2022-09-01T07:51:34.316Z,22.42
2022-09-01T07:53:12.645Z,22.42
2022-09-01T07:55:42.246Z,22.46
2022-09-01T07:58:10.968Z,22.49
2022-09-01T08:00:45.063Z,22.51
2022-09-01T08:03:12.603Z,22.56
2022-09-01T08:05:39.269Z,22.62
2022-09-01T08:08:18.563Z,22.66
2022-09-01T08:10:49.037Z,22.71
2022-09-01T08:13:16.963Z,22.77
2022-09-01T08:18:48.171Z,22.79
2022-09-01T08:21:15.568Z,22.80
2022-09-01T08:23:43.258Z,22.82
2022-09-01T08:26:14.152Z,22.84
2022-09-01T08:28:46.133Z,22.85
2022-09-01T08:31:16.081Z,22.90
2022-09-01T08:33:44.616Z,22.96
2022-09-01T08:36:13.493Z,22.99
2022-09-01T08:38:41.188Z,23.04
2022-09-01T08:41:35.444Z,23.12
2022-09-01T08:44:17.297Z,23.21
2022-09-01T08:46:44.450Z,23.25
2022-09-01T08:49:42.755Z,23.32
2022-09-01T08:52:30.767Z,23.36
2022-09-01T08:55:22.213Z,23.41
2022-09-01T08:57:54.856Z,23.47
2022-09-01T09:00:28.033Z,23.51
2022-09-01T09:03:15.661Z,23.55
2022-09-01T09:06:01.484Z,23.56
2022-09-01T09:08:57.841Z,23.60
2022-09-01T09:11:40.824Z,23.63
2022-09-01T09:14:58.445Z,23.67
2022-09-01T09:17:34.466Z,23.69
2022-09-01T09:20:02.371Z,23.73
2022-09-01T09:22:29.153Z,23.71
2022-09-01T09:25:10.257Z,23.79
2022-09-01T09:27:42.745Z,23.81
2022-09-01T09:30:20.059Z,23.85
2022-09-01T09:35:51.754Z,23.90
2022-09-01T09:38:28.899Z,23.92
2022-09-01T09:44:17.556Z,23.92
2022-09-01T09:46:47.467Z,23.94
2022-09-01T09:49:34.852Z,23.95
2022-09-01T09:52:03.272Z,23.96
2022-09-01T09:54:33.331Z,23.99
2022-09-01T09:57:17.565Z,23.99
2022-09-01T10:00:00.838Z,24.01
2022-09-01T10:02:34.010Z,24.02
2022-09-01T10:05:21.956Z,24.04
2022-09-01T10:07:49.071Z,24.07
2022-09-01T10:10:56.355Z,24.09
2022-09-01T10:13:25.934Z,24.11
2022-09-01T10:15:57.052Z,24.13
2022-09-01T10:18:37.756Z,24.13
2022-09-01T10:21:30.565Z,24.16
2022-09-01T10:26:53.008Z,24.20
2022-09-01T10:29:47.032Z,24.21
2022-09-01T10:32:35.069Z,24.20
2022-09-01T10:35:04.612Z,24.20
2022-09-01T10:37:31.936Z,24.22
2022-09-01T10:40:10.804Z,24.24
2022-09-01T10:42:39.090Z,24.24
2022-09-01T10:45:05.815Z,24.24
2022-09-01T10:47:37.025Z,24.28
2022-09-01T10:50:25.542Z,24.30
2022-09-01T10:52:57.838Z,24.30
2022-09-01T10:55:32.578Z,24.34
2022-09-01T11:01:41.055Z,24.34
2022-09-01T11:03:56.315Z,24.36
2022-09-01T11:06:42.370Z,24.36
2022-09-01T11:09:23.795Z,24.36
2022-09-01T11:12:29.267Z,24.35
2022-09-01T11:14:56.484Z,24.37
2022-09-01T11:17:39.657Z,24.39
2022-09-01T11:20:22.662Z,24.39
2022-09-01T11:23:06.186Z,24.39
2022-09-01T11:25:46.544Z,24.39
2022-09-01T11:28:18.157Z,24.42
2022-09-01T11:30:53.500Z,24.43
2022-09-01T11:33:28.746Z,24.48
2022-09-01T11:36:26.350Z,24.47
2022-09-01T11:38:59.604Z,24.46
2022-09-01T11:41:44.928Z,24.49
2022-09-01T11:44:18.659Z,24.49
2022-09-01T11:46:46.151Z,24.47
2022-09-01T11:49:32.586Z,24.50
2022-09-01T11:52:00.681Z,24.51
2022-09-01T11:54:29.959Z,24.51
2022-09-01T11:56:56.558Z,24.51
2022-09-01T11:59:38.097Z,24.54
2022-09-01T12:02:05.297Z,24.54
2022-09-01T12:04:36.261Z,24.52
2022-09-01T12:07:08.107Z,24.55
2022-09-01T12:09:42.949Z,24.55
2022-09-01T12:12:28.896Z,24.57
2022-09-01T12:15:05.819Z,24.57
2022-09-01T12:17:33.884Z,24.57
2022-09-01T12:20:28.849Z,24.60
2022-09-01T12:22:56.467Z,24.59
2022-09-01T12:25:29.832Z,24.62
2022-09-01T12:27:56.874Z,24.62
2022-09-01T12:30:23.962Z,24.62
2022-09-01T12:32:51.034Z,24.64
2022-09-01T12:35:24.578Z,24.67
2022-09-01T12:37:52.841Z,24.67
2022-09-01T12:40:31.116Z,24.71
2022-09-01T12:42:57.739Z,24.71
2022-09-01T12:45:44.674Z,24.73
2022-09-01T12:48:29.817Z,24.73
2022-09-01T12:50:59.791Z,24.73
2022-09-01T12:53:31.700Z,24.73
2022-09-01T12:56:05.849Z,24.74
2022-09-01T12:58:33.169Z,24.76
2022-09-01T13:01:05.273Z,24.78
2022-09-01T13:03:32.867Z,24.79
2022-09-01T13:06:03.596Z,24.83
2022-09-01T13:08:33.175Z,24.85
2022-09-01T13:11:04.701Z,24.88
2022-09-01T13:13:31.591Z,24.86
2022-09-01T13:16:04.304Z,24.86
2022-09-01T13:18:31.017Z,24.86
2022-09-01T13:20:58.993Z,24.88
2022-09-01T13:23:25.769Z,24.90
2022-09-01T13:25:53.024Z,24.91
2022-09-01T13:36:52.426Z,24.93
2022-09-01T13:39:20.455Z,24.94
2022-09-01T13:41:47.675Z,24.96
2022-09-01T13:44:14.475Z,24.97
2022-09-01T13:50:05.870Z,24.97
2022-09-01T13:52:16.082Z,24.96
2022-09-01T13:54:44.470Z,24.98
2022-09-01T13:57:12.140Z,25.00
2022-09-01T13:59:38.843Z,25.02
2022-09-01T14:02:05.912Z,25.02
2022-09-01T14:04:32.503Z,25.02
2022-09-01T14:06:59.767Z,25.04
2022-09-01T14:09:26.729Z,25.07
2022-09-01T14:11:54.617Z,25.07
2022-09-01T14:14:21.977Z,25.09
2022-09-01T14:16:49.607Z,25.10
2022-09-01T14:19:16.433Z,25.12
2022-09-01T14:21:43.393Z,25.13
2022-09-01T14:24:10.018Z,25.14
2022-09-01T14:26:36.565Z,25.16
2022-09-01T14:29:03.304Z,25.17
2022-09-01T14:31:30.237Z,25.20
2022-09-01T14:33:56.958Z,25.22
2022-09-01T14:36:25.982Z,25.23
2022-09-01T14:38:53.542Z,25.24
2022-09-01T14:41:25.841Z,25.26
2022-09-01T14:43:56.760Z,25.25
2022-09-01T14:46:25.470Z,25.27
2022-09-01T14:48:52.194Z,25.28
2022-09-01T14:51:25.553Z,25.28
2022-09-01T14:53:53.383Z,25.29
2022-09-01T14:56:20.267Z,25.29
2022-09-01T14:58:47.912Z,25.30
2022-09-01T15:01:33.143Z,25.31
2022-09-01T15:04:00.519Z,25.32
2022-09-01T15:06:27.060Z,25.33
2022-09-01T15:08:53.595Z,25.34
2022-09-01T15:11:21.237Z,25.34
2022-09-01T15:13:50.027Z,25.36
2022-09-01T15:16:19.717Z,25.36
2022-09-01T15:18:46.531Z,25.38
2022-09-01T15:21:20.122Z,25.37
2022-09-01T15:23:48.502Z,25.38
2022-09-01T15:26:16.970Z,25.39
2022-09-01T15:28:45.008Z,25.41
2022-09-01T15:31:12.817Z,25.41
2022-09-01T15:33:40.236Z,25.41
2022-09-01T15:36:07.279Z,25.40
2022-09-01T15:38:34.280Z,25.45
2022-09-01T15:41:01.741Z,25.48
2022-09-01T15:43:29.429Z,25.49
2022-09-01T15:45:58.435Z,25.51
2022-09-01T15:48:27.557Z,25.50
2022-09-01T15:51:01.632Z,25.50
2022-09-01T15:53:28.126Z,25.52
2022-09-01T15:55:54.627Z,25.51
2022-09-01T15:58:21.155Z,25.50
2022-09-01T16:00:47.750Z,25.53
2022-09-01T16:03:14.329Z,25.54
2022-09-01T16:05:41.450Z,25.53
2022-09-01T16:08:09.765Z,25.55
2022-09-01T16:10:39.874Z,25.55
2022-09-01T16:13:07.156Z,25.56
2022-09-01T16:15:35.279Z,25.55
2022-09-01T16:18:30.792Z,25.53
2022-09-01T16:21:08.685Z,25.52
2022-09-01T16:23:48.841Z,25.53
2022-09-01T16:26:17.724Z,25.53
2022-09-01T16:28:51.016Z,25.53
2022-09-01T16:31:24.818Z,25.52
2022-09-01T16:33:55.921Z,25.52
2022-09-01T16:36:47.064Z,25.53
2022-09-01T16:39:16.262Z,25.53
2022-09-01T16:42:06.925Z,25.51
2022-09-01T16:44:49.548Z,25.50
2022-09-01T16:48:11.009Z,25.51
2022-09-01T16:50:50.475Z,25.53
2022-09-01T16:53:26.963Z,25.55
2022-09-01T16:56:31.052Z,25.56
2022-09-01T16:59:16.035Z,25.56
2022-09-01T17:02:07.067Z,25.57
2022-09-01T17:04:42.150Z,25.57
2022-09-01T17:07:14.110Z,25.57
2022-09-01T17:09:42.422Z,25.57
2022-09-01T17:12:27.626Z,25.57
2022-09-01T17:15:10.148Z,25.58
2022-09-01T17:17:46.253Z,25.56
2022-09-01T17:20:14.448Z,25.58
2022-09-01T17:22:50.846Z,25.60
2022-09-01T17:25:32.628Z,25.60
2022-09-01T17:28:07.889Z,25.60
2022-09-01T17:30:44.922Z,25.61
2022-09-01T17:33:43.422Z,25.58
2022-09-01T17:36:17.922Z,25.56
2022-09-01T17:38:57.544Z,25.56
2022-09-01T17:41:34.734Z,25.54
2022-09-01T17:44:18.041Z,25.54
2022-09-01T17:47:00.769Z,25.54
2022-09-01T17:49:59.401Z,25.55
2022-09-01T17:52:52.858Z,25.55
2022-09-01T17:55:19.561Z,25.55
2022-09-01T17:58:32.672Z,25.56
2022-09-01T18:01:09.312Z,25.54
2022-09-01T18:03:53.914Z,25.52
2022-09-01T18:06:23.429Z,25.53
2022-09-01T18:08:53.981Z,25.52
2022-09-01T18:11:49.573Z,25.51
2022-09-01T18:14:21.294Z,25.50
2022-09-01T18:17:15.385Z,25.51
2022-09-01T18:19:47.914Z,25.51
2022-09-01T18:22:21.167Z,25.49
2022-09-01T18:25:03.825Z,25.50
2022-09-01T18:27:33.484Z,25.49
2022-09-01T18:30:01.381Z,25.48
2022-09-01T18:33:05.318Z,25.47
2022-09-01T18:35:45.874Z,25.45
2022-09-01T18:38:28.774Z,25.45
2022-09-01T18:41:12.760Z,25.42
2022-09-01T18:43:55.038Z,25.42
2022-09-01T18:46:43.968Z,25.42
2022-09-01T18:49:39.602Z,25.40
2022-09-01T18:52:31.483Z,25.40
2022-09-01T18:55:31.048Z,25.38
2022-09-01T18:58:06.077Z,25.39
2022-09-01T19:01:03.877Z,25.37
2022-09-01T19:03:50.353Z,25.36
2022-09-01T19:06:30.572Z,25.36
2022-09-01T19:09:08.619Z,25.35
2022-09-01T19:11:48.387Z,25.33
2022-09-01T19:17:02.399Z,25.30
2022-09-01T19:19:43.671Z,25.28
2022-09-01T19:22:18.960Z,25.27
2022-09-01T19:25:19.400Z,25.23
2022-09-01T19:27:55.904Z,25.21
2022-09-01T19:30:22.446Z,25.17
2022-09-01T19:32:50.484Z,25.12
2022-09-01T19:35:17.606Z,25.07
2022-09-01T19:37:48.213Z,25.03
2022-09-01T19:40:18.182Z,25.00
2022-09-01T19:43:00.008Z,24.95
2022-09-01T19:45:47.296Z,24.95
2022-09-01T19:48:26.663Z,24.92
2022-09-01T19:51:02.920Z,24.88
2022-09-01T19:53:48.662Z,24.82
2022-09-01T19:56:56.716Z,24.75
2022-09-01T19:59:45.576Z,24.70
2022-09-01T20:02:23.312Z,24.66
2022-09-01T20:04:49.855Z,24.65
2022-09-01T20:07:46.597Z,24.62
2022-09-01T20:10:31.401Z,24.59
2022-09-01T20:13:16.589Z,24.56
2022-09-01T20:16:01.487Z,24.56
2022-09-01T20:18:34.088Z,24.56
2022-09-01T20:21:05.998Z,24.55
2022-09-01T20:24:09.403Z,24.50
2022-09-01T20:26:45.866Z,24.51
2022-09-01T20:29:47.052Z,24.47
2022-09-01T20:32:27.572Z,24.44
2022-09-01T20:35:00.022Z,24.41
2022-09-01T20:38:01.892Z,24.37
2022-09-01T20:40:40.218Z,24.34
2022-09-01T20:43:22.160Z,24.34
2022-09-01T20:45:48.887Z,24.32
2022-09-01T20:48:21.274Z,24.32
2022-09-01T20:51:13.724Z,24.27
2022-09-01T20:54:01.140Z,24.27
2022-09-01T20:56:51.532Z,24.25
2022-09-01T20:59:32.464Z,24.22
2022-09-01T21:02:28.576Z,24.22
2022-09-01T21:05:19.677Z,24.17
2022-09-01T21:08:14.063Z,24.14
2022-09-01T21:10:49.615Z,24.14
2022-09-01T21:13:52.894Z,24.11
2022-09-01T21:16:49.240Z,24.11
2022-09-01T21:19:52.208Z,24.07
2022-09-01T21:22:22.191Z,24.07
2022-09-01T21:24:49.589Z,24.04
2022-09-01T21:27:23.215Z,24.01
2022-09-01T21:29:54.666Z,24.00
2022-09-01T21:32:22.687Z,23.96
2022-09-01T21:34:50.472Z,23.94
2022-09-01T21:37:18.270Z,23.92
2022-09-01T21:39:44.991Z,23.92
2022-09-01T21:42:13.327Z,23.91
2022-09-01T21:44:40.883Z,23.88
2022-09-01T21:47:07.746Z,23.87
2022-09-01T21:49:34.268Z,23.87
2022-09-01T21:52:00.890Z,23.86
2022-09-01T21:54:27.485Z,23.84
2022-09-01T21:56:54.005Z,23.82
2022-09-01T21:59:20.866Z,23.81
2022-09-01T22:01:47.639Z,23.77
2022-09-01T22:04:14.493Z,23.73
2022-09-01T22:06:41.324Z,23.73
2022-09-01T22:09:21.011Z,23.71
2022-09-01T22:11:50.222Z,23.70
2022-09-01T22:14:17.988Z,23.68
2022-09-01T22:16:44.676Z,23.67
2022-09-01T22:19:11.380Z,23.65
2022-09-01T22:21:39.719Z,23.63
2022-09-01T22:24:06.706Z,23.60
2022-09-01T22:26:33.908Z,23.58
2022-09-01T22:29:03.362Z,23.56
2022-09-01T22:31:32.001Z,23.56
2022-09-01T22:33:59.438Z,23.52
2022-09-01T22:36:32.985Z,23.52
2022-09-01T22:38:59.790Z,23.50
2022-09-01T22:41:28.679Z,23.49
2022-09-01T22:43:56.863Z,23.47
2022-09-01T22:46:23.726Z,23.46
2022-09-01T22:48:50.856Z,23.45
2022-09-01T22:53:45.625Z,23.44
2022-09-01T22:58:43.561Z,23.40
2022-09-01T23:01:13.940Z,23.38
2022-09-01T23:03:42.582Z,23.38
2022-09-01T23:06:21.879Z,23.37
2022-09-01T23:08:56.015Z,23.36
2022-09-01T23:11:22.812Z,23.36
2022-09-01T23:13:49.517Z,23.34
2022-09-01T23:16:16.805Z,23.34
2022-09-01T23:18:46.183Z,23.32
2022-09-01T23:21:15.632Z,23.31
2022-09-01T23:23:42.481Z,23.30
2022-09-01T23:26:11.571Z,23.31
2022-09-01T23:28:40.373Z,23.28
2022-09-01T23:31:10.278Z,23.26
2022-09-01T23:33:37.117Z,23.23
2022-09-01T23:36:10.648Z,23.20
2022-09-01T23:38:37.790Z,23.16
2022-09-01T23:41:10.284Z,23.14
2022-09-01T23:43:37.083Z,23.13
2022-09-01T23:46:04.139Z,23.12
2022-09-01T23:48:31.041Z,23.04
2022-09-01T23:51:01.424Z,23.04
2022-09-01T23:53:31.212Z,23.04
2022-09-01T23:56:00.399Z,23.02
2022-09-01T23:58:27.914Z,22.99
